Waterfall, Pennsylvania
Current Conditions -  °F | °C
As of 6:23 AM on Tuesday 21 Oct 2014 (Local Time) from KAOO Reporting Station
Overcast Overcast  
Wind Chill: 49°   Ceiling: 2500
Heat Index: 49°   Visibility: 10mi
Dew Point: 45°   Wind: 0mph
Humidity: 86%   Direction: NA
Pressure: 29.84"   Gusts: NA
Location:  40.13°N, 78.06°W
Report Text: KAOO 211023Z AUTO 00000KT 10SM BKN025 OVC031 09/07 A2984 RMK AO2 T00940072
Loading
Personal Weather Stations






























Interactive Weather Map
Tropical Storm Tracking
New forecast layout! Learn more

10-Day Weather Forecast

Advertisements
Track Severe Weather on mobile